METAR Data
IDs: Format: Raw Decoded Include TAF

Data at: 1152 UTC 23 Sep 2018

KLMO 231135Z AUTO 25003KT 10SM CLR 11/M01 A3006 RMK AO2 T01101006
KLMO 231115Z AUTO 20003KT 10SM CLR 11/M01 A3007 RMK AO2 T01061012
KLMO 231055Z AUTO 25004KT 10SM CLR 12/M01 A3007 RMK AO2 T01151013
KLMO 231035Z AUTO 29004KT 10SM CLR 11/00 A3007 RMK AO2 T01051004
KLMO 231015Z AUTO 00000KT 10SM CLR 10/00 A3007 RMK AO2 T01041002
KLMO 230955Z AUTO 00000KT 10SM CLR 11/M02 A3006 RMK AO2 T01101019
KLMO 230935Z AUTO 33004KT 10SM CLR 12/M02 A3006 RMK AO2 T01211022
KLMO 230915Z AUTO 25005KT 10SM CLR 11/M02 A3006 RMK AO2 T01111024
KLMO 230855Z AUTO 29003KT 10SM CLR 15/M03 A3006 RMK AO2 T01461031
KLMO 230835Z AUTO 23006KT 10SM CLR 17/M05 A3007 RMK AO2 T01731047
KLMO 230815Z AUTO 28007KT 10SM CLR 13/M03 A3007 RMK AO2 T01251032
KLMO 230755Z AUTO 26003KT 10SM CLR 12/M01 A3007 RMK AO2 T01171012
KLMO 230735Z AUTO 22003KT 10SM CLR 12/00 A3008 RMK AO2 T01181003
KLMO 230715Z AUTO 00000KT 10SM CLR 13/M01 A3008 RMK AO2 T01251013
KLMO 230655Z AUTO 00000KT 10SM CLR 13/M01 A3008 RMK AO2 T01281014
KLMO 230635Z AUTO 00000KT 10SM CLR 13/M01 A3007 RMK AO2 T01301008
KLMO 230615Z AUTO 00000KT 7SM CLR 13/00 A3007 RMK AO2 T01270000
KLMO 230555Z AUTO 26004KT 10SM CLR 14/M01 A3008 RMK AO2 T01411010
KLMO 230535Z AUTO 23004KT 7SM CLR 14/00 A3008 RMK AO2 T01360004
KLMO 230515Z AUTO 26004KT 7SM CLR 15/M02 A3008 RMK AO2 T01461019
KLMO 230455Z AUTO 28005KT 7SM CLR 16/M03 A3008 RMK AO2 T01581031
KLMO 230435Z AUTO 29005KT 7SM CLR 16/M04 A3008 RMK AO2 T01611037
KLMO 230415Z AUTO 30006KT 7SM CLR 16/M03 A3009 RMK AO2 T01621030
KLMO 230355Z AUTO 24006KT 7SM CLR 16/M03 A3009 RMK AO2 T01581030
KLMO 230335Z AUTO 26005KT 7SM CLR 16/M02 A3009 RMK AO2 T01571020
KLMO 230315Z AUTO 27005KT 7SM CLR 16/M02 A3010 RMK AO2 T01611023
KLMO 230255Z AUTO 26004KT 7SM CLR 15/M02 A3009 RMK AO2 T01521021
KLMO 230235Z AUTO 25003KT 7SM CLR 16/M02 A3009 RMK AO2 T01611022
KLMO 230215Z AUTO 29005KT 10SM CLR 16/M01 A3008 RMK AO2 T01611008
KLMO 230155Z AUTO 29004KT 5SM HZ CLR 17/00 A3008 RMK AO2 T01721003
KLMO 230135Z AUTO 28005KT 7SM CLR 18/00 A3008 RMK AO2 T01811002
KLMO 230115Z AUTO 31005KT 5SM HZ CLR 20/00 A3007 RMK AO2 T02000001
KLMO 230055Z AUTO 00000KT 5SM HZ CLR 25/M04 A3006 RMK AO2 T02511036
KLMO 230035Z AUTO 00000KT 5SM HZ CLR 27/M03 A3006 RMK AO2 T02661034
KLMO 230015Z AUTO 13003KT 10SM CLR 29/M05 A3006 RMK AO2 T02871047
KLMO 222355Z AUTO 14004KT 10SM CLR 30/M06 A3006 RMK AO2 T02961064
KLMO 222335Z AUTO 12004KT 7SM CLR 30/M06 A3006 RMK AO2 T03011059
KLMO 222315Z AUTO 13006KT 10SM CLR 31/M06 A3006 RMK AO2 T03081063
KLMO 222255Z AUTO 13004KT 10SM CLR 31/M07 A3006 RMK AO2 T03121069
KLMO 222155Z AUTO 16009KT 110V180 10SM CLR 31/M05 A3006 RMK AO2 T03131051
KLMO 222135Z AUTO 17007KT 10SM CLR 32/M07 A3007 RMK AO2 T03151071
KLMO 222115Z AUTO 12009KT 7SM CLR 32/M06 A3008 RMK AO2 T03151060
KLMO 222055Z AUTO 13007KT 10SM CLR 32/M05 A3009 RMK AO2 T03171055
KLMO 222035Z AUTO 17006KT 10SM CLR 32/M05 A3009 RMK AO2 T03191055
KLMO 222015Z AUTO 09007KT 10SM CLR 31/M05 A3011 RMK AO2 T03131048
KLMO 221955Z AUTO 13008G14KT 10SM CLR 31/M04 A3011 RMK AO2 T03121044
KLMO 221935Z AUTO 14008KT 10SM CLR 31/M05 A3013 RMK AO2 T03121047
KLMO 221915Z AUTO 12009G14KT 10SM CLR 31/M04 A3014 RMK AO2 T03051036
KLMO 221855Z AUTO 09009KT 10SM CLR 30/M02 A3015 RMK AO2 T03021018
KLMO 221835Z AUTO 08007KT 10SM CLR 30/M01 A3016 RMK AO2 T02961012
KLMO 221815Z AUTO 09005KT 10SM CLR 29/01 A3017 RMK AO2 T02890005
KLMO 221755Z AUTO 11005KT 10SM CLR 28/M01 A3018 RMK AO2 T02771006
KLMO 221735Z AUTO 14004KT 10SM CLR 26/01 A3019 RMK AO2 T02630014
KLMO 221715Z AUTO 15003KT 10SM CLR 26/M01 A3020 RMK AO2 T02611010
KLMO 221655Z AUTO 00000KT 10SM CLR 25/00 A3020 RMK AO2 T02450000
KLMO 221635Z AUTO 00000KT 10SM CLR 23/02 A3021 RMK AO2 T02330019
KLMO 221615Z AUTO 00000KT 10SM CLR 22/04 A3021 RMK AO2 T02190037
KLMO 221555Z AUTO 21003KT 10SM CLR 20/05 A3021 RMK AO2 T02020049
KLMO 221535Z AUTO 18004KT 10SM CLR 19/06 A3021 RMK AO2 T01930060
KLMO 221515Z AUTO 17004KT 10SM CLR 18/06 A3021 RMK AO2 T01800060
KLMO 221455Z AUTO 18004KT 10SM CLR 17/07 A3021 RMK AO2 T01670065
KLMO 221435Z AUTO 22003KT 10SM CLR 15/06 A3022 RMK AO2 T01480058
KLMO 221415Z AUTO 00000KT 10SM CLR 12/05 A3021 RMK AO2 T01230050
KLMO 221355Z AUTO 00000KT 10SM CLR 10/05 A3023 RMK AO2 T00960045
KLMO 221335Z AUTO 00000KT 10SM CLR 08/03 A3021 RMK AO2 T00780033
KLMO 221315Z AUTO 00000KT 10SM CLR 07/03 A3021 RMK AO2 T00720025
KLMO 221255Z AUTO 28004KT 10SM CLR 08/03 A3021 RMK AO2 T00770033
KLMO 221235Z AUTO 28004KT 10SM CLR 07/03 A3021 RMK AO2 T00650029
KLMO 221215Z AUTO 00000KT 10SM CLR 06/03 A3021 RMK AO2 T00600025
KLMO 221155Z AUTO 00000KT 10SM CLR 06/03 A3021 RMK AO2 T00640030
KLMO 221135Z AUTO 00000KT 10SM CLR 07/03 A3021 RMK AO2 T00670034
KLMO 221115Z AUTO 00000KT 10SM CLR 07/04 A3021 RMK AO2 T00710039
KLMO 221055Z AUTO 00000KT 10SM CLR 07/04 A3021 RMK AO2 T00690038
KLMO 221035Z AUTO 00000KT 10SM CLR 07/04 A3021 RMK AO2 T00740035
KLMO 221015Z AUTO 00000KT 7SM CLR 08/04 A3021 RMK AO2 T00820044
KLMO 220955Z AUTO 00000KT 7SM CLR 09/04 A3022 RMK AO2 T00850044
KLMO 220935Z AUTO 00000KT 7SM CLR 09/04 A3021 RMK AO2 T00860042
KLMO 220915Z AUTO 00000KT 7SM CLR 09/04 A3021 RMK AO2 T00880040
KLMO 220855Z AUTO 00000KT 10SM CLR 10/04 A3021 RMK AO2 T00950044
KLMO 220835Z AUTO 00000KT 7SM CLR 10/04 A3022 RMK AO2 T00960042
KLMO 220815Z AUTO 28003KT 7SM CLR 10/05 A3022 RMK AO2 T00980047
KLMO 220755Z AUTO 29003KT 7SM CLR 10/05 A3022 RMK AO2 T01040051
KLMO 220735Z AUTO 29003KT 10SM CLR 10/05 A3022 RMK AO2 T01030048
KLMO 220715Z AUTO 00000KT 10SM CLR 11/05 A3023 RMK AO2 T01060054
KLMO 220655Z AUTO 00000KT 10SM CLR 11/06 A3023 RMK AO2 T01080056
KLMO 220635Z AUTO 00000KT 10SM CLR 11/05 A3023 RMK AO2 T01080053
KLMO 220615Z AUTO 30005KT 7SM CLR 11/05 A3023 RMK AO2 T01140053
KLMO 220555Z AUTO 30004KT 7SM CLR 13/07 A3023 RMK AO2 T01310067
KLMO 220535Z AUTO 00000KT 10SM CLR 13/06 A3024 RMK AO2 T01260064
KLMO 220515Z AUTO 32003KT 7SM CLR 12/07 A3024 RMK AO2 T01230065
KLMO 220455Z AUTO 29004KT 10SM CLR 13/06 A3024 RMK AO2 T01320063
KLMO 220435Z AUTO 00000KT 7SM CLR 13/06 A3023 RMK AO2 T01340061
KLMO 220415Z AUTO 00000KT 10SM CLR 15/06 A3023 RMK AO2 T01460059
KLMO 220355Z AUTO 00000KT 10SM CLR 16/06 A3023 RMK AO2 T01560057
KLMO 220335Z AUTO 00000KT 10SM CLR 16/06 A3023 RMK AO2 T01590060
KLMO 220315Z AUTO 27003KT 10SM CLR 17/05 A3023 RMK AO2 T01680050
KLMO 220255Z AUTO 26003KT 10SM CLR 17/05 A3022 RMK AO2 T01700051
KLMO 220235Z AUTO 25004KT 7SM CLR 17/05 A3022 RMK AO2 T01700051
KLMO 220215Z AUTO 25004KT 10SM CLR 17/05 A3021 RMK AO2 T01710053
KLMO 220155Z AUTO 30006KT 10SM CLR 18/05 A3021 RMK AO2 T01760054
KLMO 220135Z AUTO 28004KT 10SM CLR 18/06 A3020 RMK AO2 T01800059
KLMO 220115Z AUTO 31003KT 10SM CLR 19/06 A3019 RMK AO2 T01860057
KLMO 220055Z AUTO 31004KT 10SM CLR 20/06 A3018 RMK AO2 T02030057
KLMO 220035Z AUTO 31006KT 10SM CLR 23/05 A3019 RMK AO2 T02250053
KLMO 220015Z AUTO 31004KT 10SM CLR 24/05 A3018 RMK AO2 T02390054
KLMO 212355Z AUTO 30005KT 10SM CLR 25/04 A3018 RMK AO2 T02500044